sensor_id;sensor_type;location;lat;lon;timestamp;temperature;humidity
37488;DHT22;23342;52.620;13.300;2023-01-15T00:01:43;8.90;99.90
37488;DHT22;23342;52.620;13.300;2023-01-15T00:04:11;9.00;99.90
37488;DHT22;23342;52.620;13.300;2023-01-15T00:06:39;8.90;99.90
37488;DHT22;23342;52.620;13.300;2023-01-15T00:09:06;9.00;99.90
37488;DHT22;23342;52.620;13.300;2023-01-15T00:11:32;9.00;99.90
37488;DHT22;23342;52.620;13.300;2023-01-15T00:13:58;9.00;99.90
37488;DHT22;23342;52.620;13.300;2023-01-15T00:16:25;9.00;99.90
37488;DHT22;23342;52.620;13.300;2023-01-15T00:18:52;9.00;99.90
37488;DHT22;23342;52.620;13.300;2023-01-15T00:21:19;9.10;99.90
37488;DHT22;23342;52.620;13.300;2023-01-15T00:23:46;9.10;99.90
37488;DHT22;23342;52.620;13.300;2023-01-15T00:26:31;9.10;99.90
37488;DHT22;23342;52.620;13.300;2023-01-15T00:29:17;9.10;99.90
37488;DHT22;23342;52.620;13.300;2023-01-15T00:31:49;9.10;99.90
37488;DHT22;23342;52.620;13.300;2023-01-15T00:34:15;9.10;99.90
37488;DHT22;23342;52.620;13.300;2023-01-15T00:36:41;9.10;99.90
37488;DHT22;23342;52.620;13.300;2023-01-15T00:39:06;9.10;99.90
37488;DHT22;23342;52.620;13.300;2023-01-15T00:41:32;9.10;99.90
37488;DHT22;23342;52.620;13.300;2023-01-15T00:43:58;9.10;99.90
37488;DHT22;23342;52.620;13.300;2023-01-15T00:46:23;9.20;99.90
37488;DHT22;23342;52.620;13.300;2023-01-15T00:48:49;9.20;99.90
37488;DHT22;23342;52.620;13.300;2023-01-15T00:51:14;9.20;99.90
37488;DHT22;23342;52.620;13.300;2023-01-15T00:53:39;9.20;99.90
37488;DHT22;23342;52.620;13.300;2023-01-15T00:56:05;9.20;99.90
37488;DHT22;23342;52.620;13.300;2023-01-15T00:58:31;9.20;99.90
37488;DHT22;23342;52.620;13.300;2023-01-15T01:00:57;9.30;99.90
37488;DHT22;23342;52.620;13.300;2023-01-15T01:03:23;9.30;99.90
37488;DHT22;23342;52.620;13.300;2023-01-15T01:05:49;9.30;99.90
37488;DHT22;23342;52.620;13.300;2023-01-15T01:08:15;9.30;99.90
37488;DHT22;23342;52.620;13.300;2023-01-15T01:10:41;9.30;99.90
37488;DHT22;23342;52.620;13.300;2023-01-15T01:13:07;9.30;99.90
37488;DHT22;23342;52.620;13.300;2023-01-15T01:15:33;9.30;99.90
37488;DHT22;23342;52.620;13.300;2023-01-15T01:18:00;9.30;99.90
37488;DHT22;23342;52.620;13.300;2023-01-15T01:20:26;9.30;99.90
37488;DHT22;23342;52.620;13.300;2023-01-15T01:22:52;9.30;99.90
37488;DHT22;23342;52.620;13.300;2023-01-15T01:25:18;9.30;99.90
37488;DHT22;23342;52.620;13.300;2023-01-15T01:27:45;9.30;99.90
37488;DHT22;23342;52.620;13.300;2023-01-15T01:30:12;9.40;99.90
37488;DHT22;23342;52.620;13.300;2023-01-15T01:32:38;9.40;99.90
37488;DHT22;23342;52.620;13.300;2023-01-15T01:35:04;9.30;99.90
37488;DHT22;23342;52.620;13.300;2023-01-15T01:37:30;9.30;99.90
37488;DHT22;23342;52.620;13.300;2023-01-15T01:39:55;9.30;99.90
37488;DHT22;23342;52.620;13.300;2023-01-15T01:42:22;9.30;99.90
37488;DHT22;23342;52.620;13.300;2023-01-15T01:44:59;9.30;99.90
37488;DHT22;23342;52.620;13.300;2023-01-15T01:47:26;9.30;99.90
37488;DHT22;23342;52.620;13.300;2023-01-15T01:49:58;9.30;99.90
37488;DHT22;23342;52.620;13.300;2023-01-15T01:52:30;9.40;99.90
37488;DHT22;23342;52.620;13.300;2023-01-15T01:54:57;9.40;99.90
37488;DHT22;23342;52.620;13.300;2023-01-15T01:57:24;9.40;99.90
37488;DHT22;23342;52.620;13.300;2023-01-15T01:59:50;9.40;99.90
37488;DHT22;23342;52.620;13.300;2023-01-15T02:02:19;9.40;99.90
37488;DHT22;23342;52.620;13.300;2023-01-15T02:04:46;9.40;99.90
37488;DHT22;23342;52.620;13.300;2023-01-15T02:07:13;9.40;99.90
37488;DHT22;23342;52.620;13.300;2023-01-15T02:09:38;9.40;99.90
37488;DHT22;23342;52.620;13.300;2023-01-15T02:12:57;9.40;99.90
37488;DHT22;23342;52.620;13.300;2023-01-15T02:15:31;9.40;99.90
37488;DHT22;23342;52.620;13.300;2023-01-15T02:23:32;9.30;99.90
37488;DHT22;23342;52.620;13.300;2023-01-15T02:26:25;9.30;99.90
37488;DHT22;23342;52.620;13.300;2023-01-15T02:28:56;9.20;99.90
37488;DHT22;23342;52.620;13.300;2023-01-15T02:31:29;9.20;99.90
37488;DHT22;23342;52.620;13.300;2023-01-15T02:34:12;9.10;99.90
37488;DHT22;23342;52.620;13.300;2023-01-15T02:36:42;9.10;99.90
37488;DHT22;23342;52.620;13.300;2023-01-15T02:39:10;9.10;99.90
37488;DHT22;23342;52.620;13.300;2023-01-15T02:41:44;9.10;99.90
37488;DHT22;23342;52.620;13.300;2023-01-15T02:44:11;9.10;99.90
37488;DHT22;23342;52.620;13.300;2023-01-15T02:46:38;9.10;99.90
37488;DHT22;23342;52.620;13.300;2023-01-15T02:49:07;9.10;99.90
37488;DHT22;23342;52.620;13.300;2023-01-15T02:51:40;9.10;99.90
37488;DHT22;23342;52.620;13.300;2023-01-15T02:54:12;9.10;99.90
37488;DHT22;23342;52.620;13.300;2023-01-15T02:56:40;9.00;99.90
37488;DHT22;23342;52.620;13.300;2023-01-15T02:59:14;9.00;99.90
37488;DHT22;23342;52.620;13.300;2023-01-15T03:01:45;9.10;99.90
37488;DHT22;23342;52.620;13.300;2023-01-15T03:04:43;9.10;99.90
37488;DHT22;23342;52.620;13.300;2023-01-15T03:07:59;9.10;99.90
37488;DHT22;23342;52.620;13.300;2023-01-15T03:10:42;9.00;99.90
37488;DHT22;23342;52.620;13.300;2023-01-15T03:16:08;9.00;99.90
37488;DHT22;23342;52.620;13.300;2023-01-15T03:21:03;9.10;99.90
37488;DHT22;23342;52.620;13.300;2023-01-15T03:23:30;9.00;99.90
37488;DHT22;23342;52.620;13.300;2023-01-15T03:26:00;9.00;99.90
37488;DHT22;23342;52.620;13.300;2023-01-15T03:28:27;9.00;99.90
37488;DHT22;23342;52.620;13.300;2023-01-15T03:30:55;9.00;99.90
37488;DHT22;23342;52.620;13.300;2023-01-15T03:33:22;9.00;99.90
37488;DHT22;23342;52.620;13.300;2023-01-15T03:35:56;9.10;99.90
37488;DHT22;23342;52.620;13.300;2023-01-15T03:38:26;9.10;99.90
37488;DHT22;23342;52.620;13.300;2023-01-15T03:46:50;9.10;99.90
37488;DHT22;23342;52.620;13.300;2023-01-15T03:49:37;9.10;99.90
37488;DHT22;23342;52.620;13.300;2023-01-15T03:52:31;9.10;99.90
37488;DHT22;23342;52.620;13.300;2023-01-15T03:55:14;9.10;99.90
37488;DHT22;23342;52.620;13.300;2023-01-15T04:00:38;8.90;99.90
37488;DHT22;23342;52.620;13.300;2023-01-15T04:03:08;8.80;99.90
37488;DHT22;23342;52.620;13.300;2023-01-15T04:05:36;8.80;99.90
37488;DHT22;23342;52.620;13.300;2023-01-15T04:08:02;8.70;99.90
37488;DHT22;23342;52.620;13.300;2023-01-15T04:10:29;8.60;99.90
37488;DHT22;23342;52.620;13.300;2023-01-15T04:12:54;8.50;99.90
37488;DHT22;23342;52.620;13.300;2023-01-15T04:15:19;8.40;99.90
37488;DHT22;23342;52.620;13.300;2023-01-15T04:17:45;8.20;99.90
37488;DHT22;23342;52.620;13.300;2023-01-15T04:20:11;8.10;99.90
37488;DHT22;23342;52.620;13.300;2023-01-15T04:22:37;7.90;99.90
37488;DHT22;23342;52.620;13.300;2023-01-15T04:25:04;7.70;99.90
37488;DHT22;23342;52.620;13.300;2023-01-15T04:27:30;7.60;99.90
37488;DHT22;23342;52.620;13.300;2023-01-15T04:29:55;7.60;99.90
37488;DHT22;23342;52.620;13.300;2023-01-15T04:32:21;7.50;99.90
37488;DHT22;23342;52.620;13.300;2023-01-15T04:34:46;7.40;99.90
37488;DHT22;23342;52.620;13.300;2023-01-15T04:37:12;7.30;99.90
37488;DHT22;23342;52.620;13.300;2023-01-15T04:39:38;7.20;99.90
37488;DHT22;23342;52.620;13.300;2023-01-15T04:42:04;7.20;99.90
37488;DHT22;23342;52.620;13.300;2023-01-15T04:44:48;7.10;99.90
37488;DHT22;23342;52.620;13.300;2023-01-15T04:47:13;7.00;99.90
37488;DHT22;23342;52.620;13.300;2023-01-15T04:49:39;7.00;99.90
37488;DHT22;23342;52.620;13.300;2023-01-15T04:52:04;6.80;99.90
37488;DHT22;23342;52.620;13.300;2023-01-15T04:54:30;6.70;99.90
37488;DHT22;23342;52.620;13.300;2023-01-15T04:56:55;6.60;99.90
37488;DHT22;23342;52.620;13.300;2023-01-15T04:59:25;6.60;99.90
37488;DHT22;23342;52.620;13.300;2023-01-15T05:01:51;6.60;99.90
37488;DHT22;23342;52.620;13.300;2023-01-15T05:04:17;6.50;99.90
37488;DHT22;23342;52.620;13.300;2023-01-15T05:06:42;6.50;99.90
37488;DHT22;23342;52.620;13.300;2023-01-15T05:09:08;6.50;99.90
37488;DHT22;23342;52.620;13.300;2023-01-15T05:11:35;6.50;99.90
37488;DHT22;23342;52.620;13.300;2023-01-15T05:14:01;6.50;99.90
37488;DHT22;23342;52.620;13.300;2023-01-15T05:16:27;6.40;99.90
37488;DHT22;23342;52.620;13.300;2023-01-15T05:18:57;6.50;99.90
37488;DHT22;23342;52.620;13.300;2023-01-15T05:21:33;6.50;99.90
37488;DHT22;23342;52.620;13.300;2023-01-15T05:24:00;6.40;99.90
37488;DHT22;23342;52.620;13.300;2023-01-15T05:26:28;6.40;99.90
37488;DHT22;23342;52.620;13.300;2023-01-15T05:28:56;6.40;99.90
37488;DHT22;23342;52.620;13.300;2023-01-15T05:31:23;6.30;99.90
37488;DHT22;23342;52.620;13.300;2023-01-15T05:33:50;6.30;99.90
37488;DHT22;23342;52.620;13.300;2023-01-15T05:36:19;6.30;99.90
37488;DHT22;23342;52.620;13.300;2023-01-15T05:38:45;6.30;99.90
37488;DHT22;23342;52.620;13.300;2023-01-15T05:41:14;6.30;99.90
37488;DHT22;23342;52.620;13.300;2023-01-15T05:44:01;6.20;99.90
37488;DHT22;23342;52.620;13.300;2023-01-15T05:46:28;6.30;99.90
37488;DHT22;23342;52.620;13.300;2023-01-15T05:48:53;6.30;99.90
37488;DHT22;23342;52.620;13.300;2023-01-15T05:51:19;6.30;99.90
37488;DHT22;23342;52.620;13.300;2023-01-15T05:53:44;6.30;99.90
37488;DHT22;23342;52.620;13.300;2023-01-15T05:56:10;6.30;99.90
37488;DHT22;23342;52.620;13.300;2023-01-15T05:58:36;6.30;99.90
37488;DHT22;23342;52.620;13.300;2023-01-15T06:01:06;6.30;99.90
37488;DHT22;23342;52.620;13.300;2023-01-15T06:03:32;6.30;99.90
37488;DHT22;23342;52.620;13.300;2023-01-15T06:05:58;6.40;99.90
37488;DHT22;23342;52.620;13.300;2023-01-15T06:08:23;6.30;99.90
37488;DHT22;23342;52.620;13.300;2023-01-15T06:10:49;6.40;99.90
37488;DHT22;23342;52.620;13.300;2023-01-15T06:13:16;6.30;99.90
37488;DHT22;23342;52.620;13.300;2023-01-15T06:15:43;6.40;99.90
37488;DHT22;23342;52.620;13.300;2023-01-15T06:18:08;6.40;99.90
37488;DHT22;23342;52.620;13.300;2023-01-15T06:20:38;6.40;99.90
37488;DHT22;23342;52.620;13.300;2023-01-15T06:23:05;6.40;99.90
37488;DHT22;23342;52.620;13.300;2023-01-15T06:25:34;6.40;99.90
37488;DHT22;23342;52.620;13.300;2023-01-15T06:28:06;6.40;99.90
37488;DHT22;23342;52.620;13.300;2023-01-15T06:30:32;6.50;99.90
37488;DHT22;23342;52.620;13.300;2023-01-15T06:32:58;6.40;99.90
37488;DHT22;23342;52.620;13.300;2023-01-15T06:35:24;6.40;99.90
37488;DHT22;23342;52.620;13.300;2023-01-15T06:37:52;6.40;99.90
37488;DHT22;23342;52.620;13.300;2023-01-15T06:40:18;6.50;99.90
37488;DHT22;23342;52.620;13.300;2023-01-15T06:42:44;6.40;99.90
37488;DHT22;23342;52.620;13.300;2023-01-15T06:45:35;6.40;99.90
37488;DHT22;23342;52.620;13.300;2023-01-15T06:48:20;6.30;99.90
37488;DHT22;23342;52.620;13.300;2023-01-15T06:50:46;6.30;99.90
37488;DHT22;23342;52.620;13.300;2023-01-15T06:53:11;6.30;99.90
37488;DHT22;23342;52.620;13.300;2023-01-15T06:55:38;6.30;99.90
37488;DHT22;23342;52.620;13.300;2023-01-15T06:58:04;6.30;99.90
37488;DHT22;23342;52.620;13.300;2023-01-15T07:00:29;6.30;99.90
37488;DHT22;23342;52.620;13.300;2023-01-15T07:02:58;6.30;99.90
37488;DHT22;23342;52.620;13.300;2023-01-15T07:05:23;6.30;99.90
37488;DHT22;23342;52.620;13.300;2023-01-15T07:07:49;6.30;99.90
37488;DHT22;23342;52.620;13.300;2023-01-15T07:10:14;6.30;99.90
37488;DHT22;23342;52.620;13.300;2023-01-15T07:12:40;6.30;99.90
37488;DHT22;23342;52.620;13.300;2023-01-15T07:15:06;6.30;99.90
37488;DHT22;23342;52.620;13.300;2023-01-15T07:17:32;6.30;99.90
37488;DHT22;23342;52.620;13.300;2023-01-15T07:19:57;6.20;99.90
37488;DHT22;23342;52.620;13.300;2023-01-15T07:22:23;6.20;99.90
37488;DHT22;23342;52.620;13.300;2023-01-15T07:24:49;6.20;99.90
37488;DHT22;23342;52.620;13.300;2023-01-15T07:27:14;6.20;99.90
37488;DHT22;23342;52.620;13.300;2023-01-15T07:29:40;6.20;99.90
37488;DHT22;23342;52.620;13.300;2023-01-15T07:32:05;6.20;99.90
37488;DHT22;23342;52.620;13.300;2023-01-15T07:34:31;6.30;99.90
37488;DHT22;23342;52.620;13.300;2023-01-15T07:36:56;6.30;99.90
37488;DHT22;23342;52.620;13.300;2023-01-15T07:39:22;6.30;99.90
37488;DHT22;23342;52.620;13.300;2023-01-15T07:41:47;6.20;99.90
37488;DHT22;23342;52.620;13.300;2023-01-15T07:44:32;6.20;99.90
37488;DHT22;23342;52.620;13.300;2023-01-15T07:47:24;6.20;99.90
37488;DHT22;23342;52.620;13.300;2023-01-15T07:50:15;6.30;99.90
37488;DHT22;23342;52.620;13.300;2023-01-15T07:52:41;6.20;99.90
37488;DHT22;23342;52.620;13.300;2023-01-15T07:55:07;6.20;99.90
37488;DHT22;23342;52.620;13.300;2023-01-15T07:57:35;6.30;99.90
37488;DHT22;23342;52.620;13.300;2023-01-15T08:00:02;6.30;99.90
37488;DHT22;23342;52.620;13.300;2023-01-15T08:02:27;6.30;99.90
37488;DHT22;23342;52.620;13.300;2023-01-15T08:04:53;6.30;99.90
37488;DHT22;23342;52.620;13.300;2023-01-15T08:07:18;6.30;99.90
37488;DHT22;23342;52.620;13.300;2023-01-15T08:09:44;6.30;99.90
37488;DHT22;23342;52.620;13.300;2023-01-15T08:12:10;6.30;99.90
37488;DHT22;23342;52.620;13.300;2023-01-15T08:14:55;6.30;99.90
37488;DHT22;23342;52.620;13.300;2023-01-15T08:17:47;6.30;99.90
37488;DHT22;23342;52.620;13.300;2023-01-15T08:20:23;6.30;99.90
37488;DHT22;23342;52.620;13.300;2023-01-15T08:22:50;6.30;99.90
37488;DHT22;23342;52.620;13.300;2023-01-15T08:25:18;6.30;99.90
37488;DHT22;23342;52.620;13.300;2023-01-15T08:27:45;6.30;99.90
37488;DHT22;23342;52.620;13.300;2023-01-15T08:30:14;6.30;99.90
37488;DHT22;23342;52.620;13.300;2023-01-15T08:32:40;6.30;99.90
37488;DHT22;23342;52.620;13.300;2023-01-15T08:35:06;6.30;99.90
37488;DHT22;23342;52.620;13.300;2023-01-15T08:37:32;6.40;99.90
37488;DHT22;23342;52.620;13.300;2023-01-15T08:39:58;6.40;99.90
37488;DHT22;23342;52.620;13.300;2023-01-15T08:42:23;6.50;99.90
37488;DHT22;23342;52.620;13.300;2023-01-15T08:44:49;6.50;99.90
37488;DHT22;23342;52.620;13.300;2023-01-15T08:47:15;6.40;99.90
37488;DHT22;23342;52.620;13.300;2023-01-15T08:49:41;6.40;99.90
37488;DHT22;23342;52.620;13.300;2023-01-15T08:52:06;6.40;99.90
37488;DHT22;23342;52.620;13.300;2023-01-15T08:54:32;6.50;99.90
37488;DHT22;23342;52.620;13.300;2023-01-15T08:56:59;6.50;99.90
37488;DHT22;23342;52.620;13.300;2023-01-15T08:59:25;6.50;99.90
37488;DHT22;23342;52.620;13.300;2023-01-15T09:01:50;6.50;99.90
37488;DHT22;23342;52.620;13.300;2023-01-15T09:04:18;6.60;99.90
37488;DHT22;23342;52.620;13.300;2023-01-15T09:06:44;6.60;99.90
37488;DHT22;23342;52.620;13.300;2023-01-15T09:09:11;6.60;99.90
37488;DHT22;23342;52.620;13.300;2023-01-15T09:11:38;6.70;99.90
37488;DHT22;23342;52.620;13.300;2023-01-15T09:14:07;6.70;99.90
37488;DHT22;23342;52.620;13.300;2023-01-15T09:16:34;6.70;99.90
37488;DHT22;23342;52.620;13.300;2023-01-15T09:19:00;6.70;99.90
37488;DHT22;23342;52.620;13.300;2023-01-15T09:21:26;6.70;99.90
37488;DHT22;23342;52.620;13.300;2023-01-15T09:23:51;6.70;99.90
37488;DHT22;23342;52.620;13.300;2023-01-15T09:26:29;6.70;99.90
37488;DHT22;23342;52.620;13.300;2023-01-15T09:28:56;6.70;99.90
37488;DHT22;23342;52.620;13.300;2023-01-15T09:31:23;6.70;99.90
37488;DHT22;23342;52.620;13.300;2023-01-15T09:33:49;6.70;99.90
37488;DHT22;23342;52.620;13.300;2023-01-15T09:36:26;6.80;99.90
37488;DHT22;23342;52.620;13.300;2023-01-15T09:38:53;6.80;99.90
37488;DHT22;23342;52.620;13.300;2023-01-15T09:41:20;6.80;99.90
37488;DHT22;23342;52.620;13.300;2023-01-15T09:47:16;6.90;99.90
37488;DHT22;23342;52.620;13.300;2023-01-15T09:55:14;6.90;99.90
37488;DHT22;23342;52.620;13.300;2023-01-15T09:57:42;7.00;99.90
37488;DHT22;23342;52.620;13.300;2023-01-15T10:00:16;7.20;99.90
37488;DHT22;23342;52.620;13.300;2023-01-15T10:04:37;7.10;99.90
37488;DHT22;23342;52.620;13.300;2023-01-15T10:07:16;7.10;99.90
37488;DHT22;23342;52.620;13.300;2023-01-15T10:09:43;7.20;99.90
37488;DHT22;23342;52.620;13.300;2023-01-15T10:12:17;7.20;99.90
37488;DHT22;23342;52.620;13.300;2023-01-15T10:15:45;7.20;99.90
37488;DHT22;23342;52.620;13.300;2023-01-15T10:18:18;7.20;99.90
37488;DHT22;23342;52.620;13.300;2023-01-15T10:21:14;7.20;99.90
37488;DHT22;23342;52.620;13.300;2023-01-15T10:27:18;7.30;99.90
37488;DHT22;23342;52.620;13.300;2023-01-15T10:29:48;7.40;99.90
37488;DHT22;23342;52.620;13.300;2023-01-15T10:36:41;7.40;99.90
37488;DHT22;23342;52.620;13.300;2023-01-15T10:39:25;7.50;99.90
37488;DHT22;23342;52.620;13.300;2023-01-15T10:42:13;7.60;99.90
37488;DHT22;23342;52.620;13.300;2023-01-15T10:45:15;7.60;99.90
37488;DHT22;23342;52.620;13.300;2023-01-15T10:47:44;7.60;99.90
37488;DHT22;23342;52.620;13.300;2023-01-15T10:50:20;7.50;99.90
37488;DHT22;23342;52.620;13.300;2023-01-15T10:52:51;7.50;99.90
37488;DHT22;23342;52.620;13.300;2023-01-15T10:58:37;7.60;99.90
37488;DHT22;23342;52.620;13.300;2023-01-15T11:01:08;7.60;99.90
37488;DHT22;23342;52.620;13.300;2023-01-15T11:03:37;7.60;99.90
37488;DHT22;23342;52.620;13.300;2023-01-15T11:06:06;7.70;99.90
37488;DHT22;23342;52.620;13.300;2023-01-15T11:08:33;7.70;99.90
37488;DHT22;23342;52.620;13.300;2023-01-15T11:11:13;7.70;99.90
37488;DHT22;23342;52.620;13.300;2023-01-15T11:13:54;7.70;99.90
37488;DHT22;23342;52.620;13.300;2023-01-15T11:16:40;7.80;99.90
37488;DHT22;23342;52.620;13.300;2023-01-15T11:19:32;7.60;99.90
37488;DHT22;23342;52.620;13.300;2023-01-15T11:22:23;7.60;99.90
37488;DHT22;23342;52.620;13.300;2023-01-15T11:24:56;7.60;99.90
37488;DHT22;23342;52.620;13.300;2023-01-15T11:27:25;7.70;99.90
37488;DHT22;23342;52.620;13.300;2023-01-15T11:29:56;7.70;99.90
37488;DHT22;23342;52.620;13.300;2023-01-15T11:32:28;7.70;99.90
37488;DHT22;23342;52.620;13.300;2023-01-15T11:38:26;7.70;99.90
37488;DHT22;23342;52.620;13.300;2023-01-15T11:40:55;7.70;99.90
37488;DHT22;23342;52.620;13.300;2023-01-15T11:43:24;7.70;99.90
37488;DHT22;23342;52.620;13.300;2023-01-15T11:46:30;7.60;99.90
37488;DHT22;23342;52.620;13.300;2023-01-15T11:49:17;7.70;99.90
37488;DHT22;23342;52.620;13.300;2023-01-15T11:52:02;7.70;99.90
37488;DHT22;23342;52.620;13.300;2023-01-15T11:54:29;7.70;99.90
37488;DHT22;23342;52.620;13.300;2023-01-15T11:56:55;7.70;99.90
37488;DHT22;23342;52.620;13.300;2023-01-15T11:59:22;7.70;99.90
37488;DHT22;23342;52.620;13.300;2023-01-15T12:01:51;7.70;99.90
37488;DHT22;23342;52.620;13.300;2023-01-15T12:07:56;7.70;99.90
37488;DHT22;23342;52.620;13.300;2023-01-15T12:10:32;7.60;99.90
37488;DHT22;23342;52.620;13.300;2023-01-15T12:13:59;7.60;99.90
37488;DHT22;23342;52.620;13.300;2023-01-15T12:17:04;7.60;99.90
37488;DHT22;23342;52.620;13.300;2023-01-15T12:20:04;7.70;99.90
37488;DHT22;23342;52.620;13.300;2023-01-15T12:32:09;7.70;99.90
37488;DHT22;23342;52.620;13.300;2023-01-15T12:34:58;8.00;99.90
37488;DHT22;23342;52.620;13.300;2023-01-15T12:37:37;7.90;99.90
37488;DHT22;23342;52.620;13.300;2023-01-15T12:40:32;7.80;99.90
37488;DHT22;23342;52.620;13.300;2023-01-15T12:43:01;7.90;99.90
37488;DHT22;23342;52.620;13.300;2023-01-15T12:45:51;8.00;99.90
37488;DHT22;23342;52.620;13.300;2023-01-15T12:55:13;7.90;99.90
37488;DHT22;23342;52.620;13.300;2023-01-15T12:57:45;8.00;99.90
37488;DHT22;23342;52.620;13.300;2023-01-15T13:00:23;8.00;99.90
37488;DHT22;23342;52.620;13.300;2023-01-15T13:03:13;7.90;99.90
37488;DHT22;23342;52.620;13.300;2023-01-15T13:05:46;7.90;99.90
37488;DHT22;23342;52.620;13.300;2023-01-15T13:11:11;7.90;99.90
37488;DHT22;23342;52.620;13.300;2023-01-15T13:13:39;8.00;99.90
37488;DHT22;23342;52.620;13.300;2023-01-15T13:16:56;8.00;99.90
37488;DHT22;23342;52.620;13.300;2023-01-15T13:19:47;8.00;99.90
37488;DHT22;23342;52.620;13.300;2023-01-15T13:22:20;8.00;99.90
37488;DHT22;23342;52.620;13.300;2023-01-15T13:24:58;7.90;99.90
37488;DHT22;23342;52.620;13.300;2023-01-15T13:27:53;8.00;99.90
37488;DHT22;23342;52.620;13.300;2023-01-15T13:30:44;8.00;99.90
37488;DHT22;23342;52.620;13.300;2023-01-15T13:33:42;7.90;99.90
37488;DHT22;23342;52.620;13.300;2023-01-15T13:36:55;7.90;99.90
37488;DHT22;23342;52.620;13.300;2023-01-15T13:39:33;7.90;99.90
37488;DHT22;23342;52.620;13.300;2023-01-15T13:42:01;7.80;99.90
37488;DHT22;23342;52.620;13.300;2023-01-15T13:44:49;7.90;99.90
37488;DHT22;23342;52.620;13.300;2023-01-15T13:47:24;7.80;99.90
37488;DHT22;23342;52.620;13.300;2023-01-15T13:49:58;7.80;99.90
37488;DHT22;23342;52.620;13.300;2023-01-15T13:52:33;7.70;99.90
37488;DHT22;23342;52.620;13.300;2023-01-15T13:55:10;7.60;99.90
37488;DHT22;23342;52.620;13.300;2023-01-15T13:57:40;7.60;99.90
37488;DHT22;23342;52.620;13.300;2023-01-15T14:00:24;7.60;99.90
37488;DHT22;23342;52.620;13.300;2023-01-15T14:02:52;7.60;99.90
37488;DHT22;23342;52.620;13.300;2023-01-15T14:05:33;7.60;99.90
37488;DHT22;23342;52.620;13.300;2023-01-15T14:08:01;7.60;99.90
37488;DHT22;23342;52.620;13.300;2023-01-15T14:10:37;7.60;99.90
37488;DHT22;23342;52.620;13.300;2023-01-15T14:13:41;7.60;99.90
37488;DHT22;23342;52.620;13.300;2023-01-15T14:16:49;7.70;99.90
37488;DHT22;23342;52.620;13.300;2023-01-15T14:19:53;7.70;99.90
37488;DHT22;23342;52.620;13.300;2023-01-15T14:22:36;7.70;99.90
37488;DHT22;23342;52.620;13.300;2023-01-15T14:27:08;7.70;99.90
37488;DHT22;23342;52.620;13.300;2023-01-15T14:32:51;7.70;99.90
37488;DHT22;23342;52.620;13.300;2023-01-15T14:35:21;7.60;99.90
37488;DHT22;23342;52.620;13.300;2023-01-15T14:38:04;7.60;99.90
37488;DHT22;23342;52.620;13.300;2023-01-15T14:40:32;7.60;99.90
37488;DHT22;23342;52.620;13.300;2023-01-15T14:43:06;7.60;99.90
37488;DHT22;23342;52.620;13.300;2023-01-15T14:45:44;7.60;99.90
37488;DHT22;23342;52.620;13.300;2023-01-15T14:51:47;7.60;99.90
37488;DHT22;23342;52.620;13.300;2023-01-15T14:54:17;7.50;99.90
37488;DHT22;23342;52.620;13.300;2023-01-15T14:56:52;7.50;99.90
37488;DHT22;23342;52.620;13.300;2023-01-15T14:59:26;7.50;99.90
37488;DHT22;23342;52.620;13.300;2023-01-15T15:02:14;7.50;99.90
37488;DHT22;23342;52.620;13.300;2023-01-15T15:04:48;7.50;99.90
37488;DHT22;23342;52.620;13.300;2023-01-15T15:07:20;7.40;99.90
37488;DHT22;23342;52.620;13.300;2023-01-15T15:10:04;7.40;99.90
37488;DHT22;23342;52.620;13.300;2023-01-15T15:12:41;7.30;99.90
37488;DHT22;23342;52.620;13.300;2023-01-15T15:21:57;7.20;99.90
37488;DHT22;23342;52.620;13.300;2023-01-15T15:24:27;7.10;99.90
37488;DHT22;23342;52.620;13.300;2023-01-15T15:26:54;7.10;99.90
37488;DHT22;23342;52.620;13.300;2023-01-15T15:29:20;7.10;99.90
37488;DHT22;23342;52.620;13.300;2023-01-15T15:31:49;7.00;99.90
37488;DHT22;23342;52.620;13.300;2023-01-15T15:34:32;7.00;99.90
37488;DHT22;23342;52.620;13.300;2023-01-15T15:37:01;7.00;99.90
37488;DHT22;23342;52.620;13.300;2023-01-15T15:40:34;7.00;99.90
37488;DHT22;23342;52.620;13.300;2023-01-15T15:43:06;7.00;99.90
37488;DHT22;23342;52.620;13.300;2023-01-15T15:45:55;7.00;99.90
37488;DHT22;23342;52.620;13.300;2023-01-15T15:48:39;7.00;99.90
37488;DHT22;23342;52.620;13.300;2023-01-15T15:51:31;6.90;99.90
